Nicut, West Virginia
Current Conditions -  °F | °C
As of 1:35 PM on Thursday 27 Nov 2014 (Local Time) from KW22 Reporting Station
Overcast Overcast  
Wind Chill: 23°   Ceiling: 2400
Heat Index: 32°   Visibility: 10mi
Dew Point: 25°   Wind: 13mph
Humidity: 75%   Direction: 250°WSW
Pressure: 30.09"   Gusts: NA
Location:  38.7375°N, 80.9417°W
Report Text: KW22 271835Z AUTO 25011KT 10SM BKN024 BKN030 OVC036 M00/M04 A3009 RMK AO2
Loading
Personal Weather Stations






























Interactive Weather Map New forecast layout! Learn more

10-Day Weather Forecast

Advertisements
Track Severe Weather on mobile